Time;durP1;ratioP1;P1;durP2;ratioP2;P2;SDS_P1;SDS_P2;PMS_P1;PMS_P2;Temp;Humidity;BMP_temperature;BMP_pressure;BME280_temperature;BME280_humidity;BME280_pressure;Samples;Min_cycle;Max_cycle;Signal;HPM_P1;HPM_P2
2022/07/01 00:00:42;;;;;;;2.70;2.03;;;11.90;99.90;;;;;;5075731;28;20237;-64
2022/07/01 00:03:09;;;;;;;4.57;1.80;;;11.90;99.90;;;;;;5092200;28;20289;-65
2022/07/01 00:05:37;;;;;;;4.97;2.07;;;11.90;99.90;;;;;;5092168;28;20180;-65
2022/07/01 00:08:05;;;;;;;4.40;1.97;;;11.90;99.90;;;;;;5091048;28;20181;-65
2022/07/01 00:10:33;;;;;;;2.77;1.97;;;11.90;99.90;;;;;;5091923;28;20653;-65
2022/07/01 00:13:01;;;;;;;3.63;2.17;;;11.90;99.90;;;;;;5092169;28;20180;-65
2022/07/01 00:15:29;;;;;;;5.23;2.17;;;11.90;99.90;;;;;;5073891;28;20191;-65
2022/07/01 00:17:57;;;;;;;2.87;1.83;;;12.00;99.90;;;;;;5091571;28;20184;-65
2022/07/01 00:20:25;;;;;;;3.00;1.70;;;12.10;99.90;;;;;;5073913;28;20610;-64
2022/07/01 00:22:52;;;;;;;3.13;1.80;;;12.00;99.90;;;;;;5091962;28;20229;-65
2022/07/01 00:25:20;;;;;;;6.53;2.60;;;12.10;99.90;;;;;;5092159;28;20184;-65
2022/07/01 00:27:48;;;;;;;3.70;1.97;;;12.20;99.90;;;;;;5091590;28;20235;-66
2022/07/01 00:30:16;;;;;;;6.13;2.20;;;12.10;99.90;;;;;;5092002;28;20195;-66
2022/07/01 00:32:46;;;;;;;4.73;2.20;;;12.10;99.90;;;;;;5091375;28;20174;-66
2022/07/01 00:35:14;;;;;;;2.67;1.50;;;12.20;99.90;;;;;;5091897;28;20177;-66
2022/07/01 00:37:41;;;;;;;3.33;2.00;;;12.30;99.90;;;;;;5091730;28;20176;-65
2022/07/01 00:40:09;;;;;;;5.07;1.80;;;12.40;99.90;;;;;;5092053;28;20238;-66
2022/07/01 00:42:41;;;;;;;2.23;1.87;;;12.50;99.90;;;;;;5096646;28;20162;-65
2022/07/01 00:45:10;;;;;;;4.60;1.90;;;12.50;99.90;;;;;;5099171;28;20346;-66
2022/07/01 00:47:40;;;;;;;5.17;1.80;;;12.40;99.90;;;;;;5091288;28;20527;-66
2022/07/01 00:50:13;;;;;;;3.70;1.90;;;12.50;99.90;;;;;;5091595;28;20217;-66
2022/07/01 00:52:43;;;;;;;4.80;1.67;;;12.60;99.90;;;;;;5091571;28;20174;-66
2022/07/01 00:55:13;;;;;;;2.53;1.60;;;12.70;99.90;;;;;;5091945;28;20204;-66
2022/07/01 00:57:43;;;;;;;5.77;1.93;;;12.70;99.90;;;;;;5091463;28;20187;-67
2022/07/01 01:00:21;;;;;;;4.30;1.90;;;12.80;99.90;;;;;;5091919;28;20188;-66
2022/07/01 01:02:49;;;;;;;2.70;2.00;;;12.80;99.90;;;;;;5090943;28;20545;-66
2022/07/01 01:05:25;;;;;;;4.80;1.80;;;12.80;99.90;;;;;;5091524;28;20193;-65
2022/07/01 01:07:52;;;;;;;3.13;1.30;;;12.80;99.90;;;;;;5091509;28;20193;-66
2022/07/01 01:10:23;;;;;;;2.67;1.40;;;12.70;99.90;;;;;;5072984;28;20835;-67
2022/07/01 01:12:52;;;;;;;5.17;1.70;;;12.60;99.90;;;;;;5093314;28;20619;-67
2022/07/01 01:15:21;;;;;;;2.40;1.67;;;12.70;99.90;;;;;;5104663;28;20178;-67
2022/07/01 01:17:49;;;;;;;2.60;1.60;;;12.60;99.90;;;;;;5094353;28;20208;-66
2022/07/01 01:20:20;;;;;;;3.20;1.63;;;12.70;99.90;;;;;;5091266;28;20270;-66
2022/07/01 01:22:49;;;;;;;3.63;1.80;;;12.70;99.90;;;;;;5091707;28;20217;-67
2022/07/01 01:25:17;;;;;;;4.27;2.00;;;12.80;99.90;;;;;;5091603;28;20185;-67
2022/07/01 01:27:45;;;;;;;2.80;1.20;;;12.80;99.90;;;;;;5091183;28;20715;-67
2022/07/01 01:30:13;;;;;;;1.80;1.50;;;12.90;99.90;;;;;;5091329;28;20271;-67
2022/07/01 01:32:42;;;;;;;2.93;1.60;;;12.90;99.90;;;;;;5091693;28;20260;-68
2022/07/01 01:35:10;;;;;;;5.03;1.50;;;12.90;99.90;;;;;;5091231;28;20189;-67
2022/07/01 01:37:38;;;;;;;2.37;1.60;;;12.90;99.90;;;;;;5090290;28;20196;-67
2022/07/01 01:40:06;;;;;;;3.53;1.30;;;13.00;99.90;;;;;;5090455;28;20632;-66
2022/07/01 01:42:35;;;;;;;2.40;1.50;;;13.00;99.90;;;;;;5091588;28;20174;-67
2022/07/01 01:45:04;;;;;;;3.20;1.50;;;13.00;99.90;;;;;;5091506;28;20216;-67
2022/07/01 01:47:31;;;;;;;2.83;1.27;;;13.00;99.90;;;;;;5089104;28;20677;-67
2022/07/01 01:49:59;;;;;;;2.67;1.60;;;13.00;99.90;;;;;;5094651;28;20222;-67
2022/07/01 01:52:27;;;;;;;1.40;1.30;;;12.90;99.90;;;;;;5083569;28;20213;-66
2022/07/01 01:54:55;;;;;;;4.87;2.00;;;12.90;99.90;;;;;;5085893;28;20190;-66
2022/07/01 01:57:22;;;;;;;1.93;1.60;;;12.80;99.90;;;;;;5085555;28;20200;-66
2022/07/01 01:59:50;;;;;;;3.67;1.80;;;12.90;99.90;;;;;;5083908;28;20237;-66
2022/07/01 02:02:18;;;;;;;3.63;1.33;;;12.80;99.90;;;;;;5086116;28;20180;-65
2022/07/01 02:04:46;;;;;;;1.60;1.50;;;12.80;99.90;;;;;;5085503;28;20248;-66
2022/07/01 02:07:14;;;;;;;2.43;1.43;;;12.80;99.90;;;;;;5082027;28;20182;-67
2022/07/01 02:09:42;;;;;;;2.77;1.60;;;12.80;99.90;;;;;;5094794;28;20304;-66
2022/07/01 02:12:09;;;;;;;3.17;1.63;;;12.80;99.90;;;;;;5094336;28;20174;-66
2022/07/01 02:14:37;;;;;;;2.77;1.83;;;12.80;99.90;;;;;;5094856;28;20230;-67
2022/07/01 02:17:05;;;;;;;2.50;1.97;;;12.80;99.90;;;;;;5094297;28;20188;-66
2022/07/01 02:19:33;;;;;;;3.07;1.80;;;12.70;99.90;;;;;;5094741;28;20181;-67
2022/07/01 02:22:01;;;;;;;6.77;2.00;;;12.70;99.90;;;;;;5094582;28;20208;-65
2022/07/01 02:24:29;;;;;;;4.03;1.93;;;12.70;99.90;;;;;;5093833;28;20263;-65
2022/07/01 02:26:56;;;;;;;3.83;2.03;;;12.80;99.90;;;;;;5092757;28;20283;-66
2022/07/01 02:29:24;;;;;;;9.67;2.20;;;12.80;99.90;;;;;;5092411;28;20213;-66
2022/07/01 02:31:52;;;;;;;7.87;2.40;;;12.80;99.90;;;;;;5093658;28;20185;-66
2022/07/01 02:34:19;;;;;;;6.13;2.27;;;12.80;99.90;;;;;;5089944;28;20182;-65
2022/07/01 02:36:47;;;;;;;4.77;2.53;;;12.80;99.90;;;;;;5084869;28;20189;-65
2022/07/01 02:39:15;;;;;;;3.83;2.07;;;12.70;99.90;;;;;;5094307;28;20673;-66
2022/07/01 02:44:29;;;;;;;2.77;1.60;;;12.80;99.90;;;;;;5094239;28;20265;-66
2022/07/01 02:46:57;;;;;;;3.90;2.40;;;12.80;99.90;;;;;;5094033;28;20630;-66
2022/07/01 02:49:24;;;;;;;4.20;2.20;;;12.80;99.90;;;;;;5093892;28;20206;-66
2022/07/01 02:51:52;;;;;;;3.60;2.27;;;12.80;99.90;;;;;;5093740;28;20268;-66
2022/07/01 02:54:20;;;;;;;7.07;2.33;;;12.80;99.90;;;;;;5093983;28;20189;-66
2022/07/01 02:56:47;;;;;;;3.70;2.40;;;12.70;99.90;;;;;;5093604;28;20187;-66
2022/07/01 02:59:15;;;;;;;3.57;2.10;;;12.80;99.90;;;;;;5093189;28;20261;-65
2022/07/01 03:01:43;;;;;;;5.53;2.30;;;12.80;99.90;;;;;;5093141;28;20201;-65
2022/07/01 03:04:10;;;;;;;5.87;2.40;;;12.80;99.90;;;;;;5093577;28;20193;-65
2022/07/01 03:06:38;;;;;;;6.70;2.67;;;12.70;99.90;;;;;;5084603;28;20187;-65
2022/07/01 03:09:06;;;;;;;3.30;2.20;;;12.70;99.90;;;;;;5073232;28;20222;-65
2022/07/01 03:11:34;;;;;;;3.67;2.10;;;12.70;99.90;;;;;;5078549;28;20170;-65
2022/07/01 03:14:01;;;;;;;2.27;1.80;;;12.70;99.90;;;;;;5087889;28;20661;-66
2022/07/01 03:16:29;;;;;;;2.97;1.90;;;12.70;99.90;;;;;;5086753;28;20230;-66
2022/07/01 03:18:57;;;;;;;3.73;2.53;;;12.70;99.90;;;;;;5085371;28;20217;-67
2022/07/01 03:21:25;;;;;;;5.03;2.30;;;12.70;99.90;;;;;;5073146;28;20174;-66
2022/07/01 03:23:52;;;;;;;3.67;2.77;;;12.70;99.90;;;;;;5083653;28;20178;-66
2022/07/01 03:26:20;;;;;;;2.93;2.10;;;12.80;99.90;;;;;;5084243;28;20591;-65
2022/07/01 03:28:48;;;;;;;3.20;2.20;;;12.80;99.90;;;;;;5093161;28;20219;-66
2022/07/01 03:31:15;;;;;;;4.90;3.00;;;12.80;99.90;;;;;;5092089;28;20170;-64
2022/07/01 03:33:43;;;;;;;3.00;2.40;;;12.80;99.90;;;;;;5078825;28;20193;-66
2022/07/01 03:36:11;;;;;;;5.40;2.77;;;12.80;99.90;;;;;;5093209;28;20185;-67
2022/07/01 03:38:38;;;;;;;2.97;2.00;;;12.70;99.90;;;;;;5092421;28;20186;-65
2022/07/01 03:41:06;;;;;;;3.20;2.00;;;12.80;99.90;;;;;;5092949;28;20232;-66
2022/07/01 03:43:34;;;;;;;3.20;1.93;;;12.80;99.90;;;;;;5092887;28;20202;-65
2022/07/01 03:46:01;;;;;;;4.57;2.07;;;12.80;99.90;;;;;;5092391;28;20184;-65
2022/07/01 03:48:29;;;;;;;5.13;2.37;;;12.80;99.90;;;;;;5074320;28;20220;-66
2022/07/01 03:50:57;;;;;;;3.70;2.13;;;12.80;99.90;;;;;;5092734;28;20261;-65
2022/07/01 03:56:10;;;;;;;4.23;2.20;;;12.80;99.90;;;;;;5092943;28;20226;-66
2022/07/01 03:58:38;;;;;;;7.93;2.73;;;12.70;99.90;;;;;;5092432;28;20175;-66
2022/07/01 04:01:05;;;;;;;4.97;3.00;;;12.80;99.90;;;;;;5092617;28;20647;-67
2022/07/01 04:03:33;;;;;;;5.97;4.10;;;12.80;99.90;;;;;;5092617;28;20637;-67
2022/07/01 04:06:01;;;;;;;9.30;3.90;;;12.70;99.90;;;;;;5092591;28;20172;-66
2022/07/01 04:08:29;;;;;;;5.33;3.70;;;12.60;99.90;;;;;;5087535;28;20217;-66
2022/07/01 04:10:56;;;;;;;4.00;2.40;;;12.50;99.90;;;;;;5087306;28;20209;-65
2022/07/01 04:13:24;;;;;;;3.67;1.80;;;12.50;99.90;;;;;;5091989;28;20294;-65
2022/07/01 04:15:52;;;;;;;6.10;2.10;;;12.40;99.90;;;;;;5080873;28;20675;-66
2022/07/01 04:18:20;;;;;;;4.37;2.10;;;12.40;99.90;;;;;;5085374;28;20217;-66
2022/07/01 04:22:32;;;;;;;3.47;2.30;;;12.30;99.90;;;;;;5088245;28;20177;-66
2022/07/01 04:23:35;;;;;;;5.57;2.37;;;12.40;99.90;;;;;;5091985;28;20185;-67
2022/07/01 04:26:03;;;;;;;3.83;2.23;;;12.30;99.90;;;;;;5091623;28;20215;-67
2022/07/01 04:28:31;;;;;;;4.10;2.33;;;12.30;99.90;;;;;;5091731;28;20234;-67
2022/07/01 04:30:59;;;;;;;6.80;2.87;;;12.30;99.90;;;;;;5088851;28;20589;-67
2022/07/01 04:33:27;;;;;;;7.00;3.20;;;12.40;99.90;;;;;;5091779;28;20182;-66
2022/07/01 04:35:55;;;;;;;7.20;3.83;;;12.30;99.90;;;;;;5091933;28;20183;-66
2022/07/01 04:38:22;;;;;;;8.07;4.77;;;12.30;99.90;;;;;;5091562;28;20639;-67
2022/07/01 04:43:43;;;;;;;6.40;3.83;;;12.20;99.90;;;;;;5060339;28;20279;-67
2022/07/01 04:46:11;;;;;;;5.93;3.63;;;12.30;99.90;;;;;;5091907;28;20181;-67
2022/07/01 04:48:40;;;;;;;4.67;2.43;;;12.30;99.90;;;;;;5091392;28;20232;-67
2022/07/01 04:51:07;;;;;;;4.13;2.30;;;12.30;99.90;;;;;;5053626;28;20202;-67
2022/07/01 04:53:36;;;;;;;2.93;1.83;;;12.20;99.90;;;;;;5080383;28;20176;-67
2022/07/01 04:56:04;;;;;;;4.67;2.13;;;12.20;99.90;;;;;;5073522;28;20193;-67
2022/07/01 04:58:31;;;;;;;3.83;2.30;;;12.20;99.90;;;;;;5091495;28;20658;-66
2022/07/01 05:00:59;;;;;;;4.10;1.83;;;12.10;99.90;;;;;;5091809;28;20220;-67
2022/07/01 05:03:27;;;;;;;2.53;2.13;;;12.10;99.90;;;;;;5091618;28;20541;-67
2022/07/01 05:05:54;;;;;;;3.40;1.87;;;12.20;99.90;;;;;;5081875;28;20868;-67
2022/07/01 05:08:22;;;;;;;2.97;1.97;;;12.20;99.90;;;;;;5073162;28;20650;-67
2022/07/01 05:10:50;;;;;;;3.10;2.07;;;12.10;99.90;;;;;;5053531;28;20235;-67
2022/07/01 05:13:18;;;;;;;5.23;2.37;;;12.10;99.90;;;;;;5071570;28;20549;-68
2022/07/01 05:15:46;;;;;;;3.53;2.27;;;12.10;99.90;;;;;;5073598;28;20608;-66
2022/07/01 05:23:45;;;;;;;3.23;2.13;;;12.00;99.90;;;;;;5095232;28;20194;-67
2022/07/01 05:26:17;;;;;;;9.37;2.47;;;12.00;99.90;;;;;;5076778;28;20601;-68
2022/07/01 05:28:48;;;;;;;2.67;2.37;;;12.00;99.90;;;;;;5095627;28;20289;-68
2022/07/01 05:31:16;;;;;;;5.03;2.50;;;12.00;99.90;;;;;;5095191;28;20177;-67
2022/07/01 05:33:44;;;;;;;4.70;2.60;;;12.00;99.90;;;;;;5095425;28;20208;-67
2022/07/01 05:36:12;;;;;;;5.83;2.33;;;11.90;99.90;;;;;;5095190;28;20180;-68
2022/07/01 05:38:40;;;;;;;4.10;2.23;;;12.00;99.90;;;;;;5095346;28;20184;-68
2022/07/01 05:41:08;;;;;;;2.87;2.13;;;11.90;99.90;;;;;;5095398;28;20263;-67
2022/07/01 05:43:35;;;;;;;5.37;2.33;;;11.90;99.90;;;;;;5094987;28;20674;-67
2022/07/01 05:46:03;;;;;;;4.17;2.60;;;11.80;99.90;;;;;;5094932;28;20176;-67
2022/07/01 05:48:31;;;;;;;2.90;2.00;;;11.80;99.90;;;;;;5076634;28;20197;-67
2022/07/01 05:50:58;;;;;;;6.03;2.17;;;11.70;99.90;;;;;;5095152;28;20199;-68
2022/07/01 05:53:26;;;;;;;3.73;1.80;;;11.70;99.90;;;;;;5094471;28;20181;-68
2022/07/01 05:55:54;;;;;;;6.40;2.20;;;11.70;99.90;;;;;;5094814;28;20192;-67
2022/07/01 05:58:22;;;;;;;6.73;2.83;;;11.70;99.90;;;;;;5094727;28;20173;-67
2022/07/01 06:00:50;;;;;;;4.53;2.77;;;11.60;99.90;;;;;;5095055;28;20177;-67
2022/07/01 06:03:17;;;;;;;6.00;2.90;;;11.60;99.90;;;;;;5094783;28;20170;-67
2022/07/01 06:05:45;;;;;;;4.87;2.53;;;11.60;99.90;;;;;;5094212;28;20173;-67
2022/07/01 06:08:13;;;;;;;5.97;2.70;;;11.60;99.90;;;;;;5094655;28;20681;-67
2022/07/01 06:10:41;;;;;;;6.00;3.33;;;11.60;99.90;;;;;;5094872;28;20206;-68
2022/07/01 06:13:08;;;;;;;6.53;2.93;;;11.60;99.90;;;;;;5076121;28;20536;-68
2022/07/01 06:15:36;;;;;;;6.30;3.30;;;11.60;99.90;;;;;;5094755;28;20212;-68
2022/07/01 06:18:04;;;;;;;5.83;3.80;;;11.50;99.90;;;;;;5094566;28;20178;-67
2022/07/01 06:20:32;;;;;;;6.80;4.10;;;11.50;99.90;;;;;;5094638;28;20187;-67
2022/07/01 06:22:59;;;;;;;6.17;3.50;;;11.40;99.90;;;;;;5094321;28;20183;-68
2022/07/01 06:25:27;;;;;;;6.60;3.63;;;11.40;99.90;;;;;;5074374;28;20188;-68
2022/07/01 06:27:55;;;;;;;4.17;3.60;;;11.40;99.90;;;;;;5073922;28;20303;-67
2022/07/01 06:30:22;;;;;;;4.80;3.40;;;11.40;99.90;;;;;;5091486;28;20774;-67
2022/07/01 06:32:50;;;;;;;7.23;3.60;;;11.40;99.90;;;;;;5094286;28;20264;-68
2022/07/01 06:35:18;;;;;;;6.30;4.10;;;11.40;99.90;;;;;;5093505;28;20258;-68
2022/07/01 06:37:46;;;;;;;8.50;4.93;;;11.30;99.90;;;;;;5093829;28;20179;-68
2022/07/01 06:40:13;;;;;;;5.50;4.10;;;11.30;99.90;;;;;;5094323;28;20186;-68
2022/07/01 06:42:41;;;;;;;5.73;3.97;;;11.30;99.90;;;;;;5094012;28;20179;-68
2022/07/01 06:45:09;;;;;;;5.63;4.10;;;11.30;99.90;;;;;;5094109;28;20168;-68
2022/07/01 06:47:37;;;;;;;9.67;6.97;;;11.30;99.90;;;;;;5090980;28;20273;-68
2022/07/01 06:50:05;;;;;;;15.37;11.03;;;11.30;99.90;;;;;;5093969;28;20211;-69
2022/07/01 06:52:34;;;;;;;16.97;11.53;;;11.30;99.90;;;;;;5088145;28;20192;-69
2022/07/01 06:55:02;;;;;;;11.00;8.37;;;11.30;99.90;;;;;;5093762;28;20179;-67
2022/07/01 06:57:30;;;;;;;9.87;6.20;;;11.30;99.90;;;;;;5093573;28;20194;-67
2022/07/01 06:59:57;;;;;;;12.00;7.03;;;11.30;99.90;;;;;;5093669;28;20179;-67
2022/07/01 07:02:25;;;;;;;8.30;4.90;;;11.30;99.90;;;;;;5093553;28;20199;-67
2022/07/01 07:04:57;;;;;;;5.83;3.90;;;11.30;99.90;;;;;;5093402;28;20185;-67
2022/07/01 07:07:25;;;;;;;5.60;3.10;;;11.30;99.90;;;;;;5093676;28;20552;-67
2022/07/01 07:09:53;;;;;;;5.80;3.23;;;11.30;99.90;;;;;;5093261;28;20227;-67
2022/07/01 07:12:21;;;;;;;5.23;3.10;;;11.30;99.90;;;;;;5093390;28;20179;-67
2022/07/01 07:14:49;;;;;;;8.40;3.27;;;11.30;99.90;;;;;;5093389;28;20177;-68
2022/07/01 07:17:16;;;;;;;5.27;3.20;;;11.40;99.90;;;;;;5093585;28;20216;-68
2022/07/01 07:19:44;;;;;;;4.83;2.57;;;11.40;99.90;;;;;;5093435;28;20233;-68
2022/07/01 07:22:12;;;;;;;6.80;3.20;;;11.40;99.90;;;;;;5093342;28;20180;-67
2022/07/01 07:24:39;;;;;;;3.33;2.97;;;11.40;99.90;;;;;;5092983;28;20179;-67
2022/07/01 07:27:07;;;;;;;5.27;3.50;;;11.40;99.90;;;;;;5092015;28;20228;-68
2022/07/01 07:29:35;;;;;;;7.43;3.73;;;11.40;99.90;;;;;;5092402;28;20228;-68
2022/07/01 07:32:03;;;;;;;7.93;3.90;;;11.40;99.90;;;;;;5091610;28;20622;-65
2022/07/01 07:34:30;;;;;;;7.20;3.90;;;11.40;99.90;;;;;;5092397;28;20240;-67
2022/07/01 07:36:58;;;;;;;6.60;4.07;;;11.40;99.90;;;;;;5091677;28;20266;-67
2022/07/01 07:39:26;;;;;;;5.50;4.00;;;11.40;99.90;;;;;;5092640;28;20890;-68
2022/07/01 07:41:53;;;;;;;5.40;3.63;;;11.40;99.90;;;;;;5088374;28;20184;-66
2022/07/01 07:44:21;;;;;;;5.53;3.80;;;11.40;99.90;;;;;;5067434;28;20190;-67
2022/07/01 07:46:49;;;;;;;5.57;3.87;;;11.40;99.90;;;;;;5086483;28;20181;-67
2022/07/01 07:49:16;;;;;;;4.47;3.80;;;11.40;99.90;;;;;;5088287;28;20639;-67
2022/07/01 07:51:44;;;;;;;4.73;3.70;;;11.40;99.90;;;;;;5087707;28;20268;-66
2022/07/01 07:54:12;;;;;;;5.10;3.80;;;11.40;99.90;;;;;;5085045;28;20180;-66
2022/07/01 07:56:40;;;;;;;6.90;4.17;;;11.40;99.90;;;;;;5084502;28;20645;-67
2022/07/01 07:59:08;;;;;;;5.17;3.93;;;11.50;99.90;;;;;;5086177;28;20176;-67
2022/07/01 08:01:36;;;;;;;6.33;4.43;;;11.40;99.90;;;;;;5084244;28;20260;-68
2022/07/01 08:04:04;;;;;;;5.10;4.10;;;11.40;99.90;;;;;;5068081;28;20183;-67
2022/07/01 08:06:32;;;;;;;6.73;4.07;;;11.40;99.90;;;;;;5086637;28;20176;-68
2022/07/01 08:08:59;;;;;;;5.93;4.50;;;11.40;99.90;;;;;;5086273;28;20213;-66
2022/07/01 08:11:27;;;;;;;5.80;4.50;;;11.40;99.90;;;;;;5085298;28;20180;-66
2022/07/01 08:13:55;;;;;;;6.33;4.40;;;11.40;99.90;;;;;;5087982;28;20571;-65
2022/07/01 08:16:23;;;;;;;5.23;4.60;;;11.30;99.90;;;;;;5086077;28;20176;-66
2022/07/01 08:18:51;;;;;;;9.23;4.60;;;11.40;99.90;;;;;;5084460;28;20202;-64
2022/07/01 08:21:19;;;;;;;7.87;4.97;;;11.40;99.90;;;;;;5085558;28;20564;-64
2022/07/01 08:23:46;;;;;;;5.37;4.20;;;11.30;99.90;;;;;;5087627;28;20179;-65
2022/07/01 08:26:16;;;;;;;5.83;3.60;;;11.30;99.90;;;;;;5064182;28;20649;-65
2022/07/01 08:28:44;;;;;;;5.83;4.50;;;11.30;99.90;;;;;;5069464;28;20309;-66
2022/07/01 08:31:12;;;;;;;6.50;4.43;;;11.30;99.90;;;;;;5065055;28;20187;-66
2022/07/01 08:33:41;;;;;;;6.17;4.10;;;11.40;99.90;;;;;;5080045;28;20548;-65
2022/07/01 08:36:09;;;;;;;6.17;4.00;;;11.30;99.90;;;;;;5084278;28;20188;-65
2022/07/01 08:38:38;;;;;;;4.23;3.37;;;11.40;99.90;;;;;;5083715;28;20196;-65
2022/07/01 08:41:09;;;;;;;7.20;4.30;;;11.30;99.90;;;;;;5091870;28;20229;-65
2022/07/01 08:43:38;;;;;;;7.83;4.00;;;11.30;99.90;;;;;;5086684;28;20248;-65
2022/07/01 08:46:07;;;;;;;5.10;4.10;;;11.30;99.90;;;;;;5082712;28;20180;-66
2022/07/01 08:48:35;;;;;;;5.87;4.30;;;11.40;99.90;;;;;;5082377;28;20214;-65
2022/07/01 08:51:04;;;;;;;7.63;4.47;;;11.40;99.90;;;;;;5081923;28;20177;-64
2022/07/01 08:53:32;;;;;;;7.93;3.93;;;11.40;99.90;;;;;;5085821;28;20188;-66
2022/07/01 08:58:45;;;;;;;7.67;4.87;;;11.30;99.90;;;;;;5097201;28;20322;-65
2022/07/01 09:01:14;;;;;;;6.33;4.40;;;11.30;99.90;;;;;;5098609;28;20242;-66
2022/07/01 09:03:44;;;;;;;8.27;4.60;;;11.30;99.90;;;;;;5098282;28;20215;-66
2022/07/01 09:06:23;;;;;;;6.17;4.90;;;11.30;99.90;;;;;;5098097;28;20227;-66
2022/07/01 09:08:51;;;;;;;4.70;3.60;;;11.30;99.90;;;;;;5078380;28;20816;-66
2022/07/01 09:11:22;;;;;;;6.30;4.30;;;11.30;99.90;;;;;;5062921;28;20188;-66
2022/07/01 09:14:13;;;;;;;5.00;4.10;;;11.30;99.90;;;;;;5098355;28;20229;-66
2022/07/01 09:16:46;;;;;;;8.93;3.90;;;11.30;99.90;;;;;;5098271;28;20217;-67
2022/07/01 09:19:15;;;;;;;10.17;5.27;;;11.30;99.90;;;;;;5098265;28;20292;-66
2022/07/01 09:21:48;;;;;;;6.77;4.00;;;11.30;99.90;;;;;;5079857;28;20183;-66
2022/07/01 09:24:34;;;;;;;7.03;4.80;;;11.30;99.90;;;;;;5098325;28;20604;-67
2022/07/01 09:27:10;;;;;;;9.30;4.67;;;11.30;99.90;;;;;;5097919;28;20227;-67
2022/07/01 09:29:43;;;;;;;8.07;4.87;;;11.30;99.90;;;;;;5098159;28;20298;-67
2022/07/01 09:32:13;;;;;;;8.10;5.00;;;11.30;99.90;;;;;;5098172;28;20732;-66
2022/07/01 09:34:45;;;;;;;5.53;4.93;;;11.30;99.90;;;;;;5098179;28;20197;-67
2022/07/01 09:37:14;;;;;;;6.07;4.77;;;11.30;99.90;;;;;;5097919;28;20773;-66
2022/07/01 09:39:50;;;;;;;5.07;3.93;;;11.30;99.90;;;;;;5098024;28;20188;-66
2022/07/01 09:42:19;;;;;;;6.87;3.93;;;11.30;99.90;;;;;;5097997;28;20218;-66
2022/07/01 09:44:57;;;;;;;3.70;3.30;;;11.30;99.90;;;;;;5097449;28;20187;-66
2022/07/01 09:47:30;;;;;;;3.60;3.00;;;11.30;99.90;;;;;;5097913;28;20173;-67
2022/07/01 09:49:58;;;;;;;8.50;3.53;;;11.30;99.90;;;;;;5097769;28;20288;-67
2022/07/01 09:52:26;;;;;;;6.70;4.23;;;11.30;99.90;;;;;;5097950;28;20720;-67
2022/07/01 09:54:54;;;;;;;5.67;4.60;;;11.30;99.90;;;;;;5097801;28;20219;-66
2022/07/01 09:57:22;;;;;;;5.07;4.40;;;11.30;99.90;;;;;;5097934;28;20547;-67
2022/07/01 09:59:51;;;;;;;4.97;4.17;;;11.30;99.90;;;;;;5092465;28;20195;-68
2022/07/01 10:02:24;;;;;;;4.87;3.70;;;11.30;99.90;;;;;;5097662;28;20216;-67
2022/07/01 10:05:06;;;;;;;4.70;4.03;;;11.30;99.90;;;;;;5097235;28;20593;-67
2022/07/01 10:08:04;;;;;;;5.67;3.50;;;11.30;99.90;;;;;;5090663;28;20334;-67
2022/07/01 10:10:43;;;;;;;4.27;3.40;;;11.30;99.90;;;;;;5094364;28;20227;-67
2022/07/01 10:13:16;;;;;;;4.37;3.73;;;11.30;99.90;;;;;;5094923;28;20230;-67
2022/07/01 10:15:48;;;;;;;4.67;3.97;;;11.30;99.90;;;;;;5094322;28;20187;-67
2022/07/01 10:18:24;;;;;;;5.33;3.20;;;11.30;99.90;;;;;;5094837;28;20180;-67
2022/07/01 10:20:54;;;;;;;3.30;3.00;;;11.30;99.90;;;;;;5094843;28;20167;-66
2022/07/01 10:23:37;;;;;;;5.07;3.07;;;11.30;99.90;;;;;;5094454;28;20181;-67
2022/07/01 10:26:07;;;;;;;4.60;3.03;;;11.30;99.90;;;;;;5094451;28;20183;-68
2022/07/01 10:28:45;;;;;;;3.47;2.10;;;11.30;99.90;;;;;;5094284;28;20223;-68
2022/07/01 10:31:18;;;;;;;3.90;2.80;;;11.30;99.90;;;;;;5076281;28;20661;-67
2022/07/01 10:33:57;;;;;;;3.57;2.40;;;11.30;99.90;;;;;;5094066;28;20636;-67
2022/07/01 10:36:32;;;;;;;2.90;2.50;;;11.30;99.90;;;;;;5094039;28;20237;-68
2022/07/01 10:39:14;;;;;;;2.70;2.40;;;11.30;99.90;;;;;;5094105;28;20710;-67
2022/07/01 10:41:42;;;;;;;3.03;2.30;;;11.30;99.90;;;;;;5094300;28;20638;-67
2022/07/01 10:44:15;;;;;;;5.23;3.17;;;11.20;99.90;;;;;;5076050;28;20619;-67
2022/07/01 10:46:56;;;;;;;4.23;2.87;;;11.30;99.90;;;;;;5094207;28;20566;-67
2022/07/01 10:49:36;;;;;;;3.07;2.67;;;11.30;99.90;;;;;;5094217;28;20213;-67
2022/07/01 10:52:18;;;;;;;5.23;2.90;;;11.20;99.90;;;;;;5094222;28;20183;-67
2022/07/01 10:54:47;;;;;;;4.47;3.13;;;11.20;99.90;;;;;;5094201;28;20240;-67
2022/07/01 10:57:18;;;;;;;5.10;3.80;;;11.20;99.90;;;;;;5093867;28;20186;-67
2022/07/01 11:00:14;;;;;;;2.40;2.20;;;11.20;99.90;;;;;;5093921;28;20187;-67
2022/07/01 11:02:42;;;;;;;2.10;1.77;;;11.20;99.90;;;;;;5065107;28;20213;-67
2022/07/01 11:05:15;;;;;;;2.13;1.67;;;11.20;99.90;;;;;;5075730;28;20565;-67
2022/07/01 11:07:48;;;;;;;2.00;1.80;;;11.20;99.90;;;;;;5093651;28;20204;-67
2022/07/01 11:10:18;;;;;;;3.33;2.63;;;11.20;99.90;;;;;;5093893;28;20211;-67
2022/07/01 11:12:48;;;;;;;3.40;2.30;;;11.20;99.90;;;;;;5093913;28;20168;-67
2022/07/01 11:15:17;;;;;;;2.23;1.60;;;11.20;99.90;;;;;;5093908;28;20190;-67
2022/07/01 11:17:48;;;;;;;3.10;1.40;;;11.20;99.90;;;;;;5093470;28;20190;-67
2022/07/01 11:20:16;;;;;;;2.67;1.97;;;11.30;99.90;;;;;;5091837;28;20322;-68
2022/07/01 11:22:44;;;;;;;2.10;1.50;;;11.30;99.90;;;;;;5092666;28;20179;-67
2022/07/01 11:25:13;;;;;;;2.37;1.50;;;11.30;99.90;;;;;;5075014;28;20195;-67
2022/07/01 11:27:45;;;;;;;1.60;1.50;;;11.20;99.90;;;;;;5074986;28;20236;-67
2022/07/01 11:30:14;;;;;;;1.73;1.37;;;11.30;99.90;;;;;;5092521;28;20223;-66
2022/07/01 11:32:47;;;;;;;2.30;1.60;;;11.30;99.90;;;;;;5056027;28;20412;-66
2022/07/01 11:41:00;;;;;;;2.10;1.60;;;11.30;99.90;;;;;;5088818;28;20233;-67
2022/07/01 11:43:31;;;;;;;1.67;1.30;;;11.30;99.90;;;;;;5092995;28;20210;-67
2022/07/01 11:46:01;;;;;;;2.57;2.10;;;11.30;99.90;;;;;;5093119;28;20179;-67
2022/07/01 11:48:36;;;;;;;2.47;2.20;;;11.30;99.90;;;;;;5072628;28;20218;-67
2022/07/01 11:51:15;;;;;;;2.03;1.90;;;11.30;99.90;;;;;;5090946;28;20184;-67
2022/07/01 11:53:45;;;;;;;4.20;1.80;;;11.30;99.90;;;;;;5092960;28;20182;-66
2022/07/01 11:56:13;;;;;;;2.53;1.67;;;11.30;99.90;;;;;;5092875;28;20190;-66
2022/07/01 11:58:53;;;;;;;1.93;1.50;;;11.30;99.90;;;;;;5073780;28;20184;-66
2022/07/01 12:01:32;;;;;;;2.03;1.70;;;11.20;99.90;;;;;;5092256;28;20241;-66
2022/07/01 12:04:04;;;;;;;2.03;1.50;;;11.20;99.90;;;;;;5092632;28;20200;-67
2022/07/01 12:06:33;;;;;;;4.00;1.40;;;11.20;99.90;;;;;;5092483;28;20229;-66
2022/07/01 12:09:01;;;;;;;2.27;1.60;;;11.20;99.90;;;;;;5092404;28;20216;-67
2022/07/01 12:11:31;;;;;;;1.87;1.67;;;11.10;99.90;;;;;;5092719;28;20595;-67
2022/07/01 12:13:59;;;;;;;1.90;1.70;;;11.20;99.90;;;;;;5092585;28;20185;-67
2022/07/01 12:16:27;;;;;;;2.40;1.50;;;11.10;99.90;;;;;;5074582;28;20214;-66
2022/07/01 12:19:02;;;;;;;1.80;1.60;;;11.10;99.90;;;;;;5073703;28;20584;-67
2022/07/01 12:21:31;;;;;;;1.93;1.60;;;11.10;99.90;;;;;;5074347;28;20531;-67
2022/07/01 12:24:11;;;;;;;3.57;1.80;;;11.10;99.90;;;;;;5092545;28;20202;-67
2022/07/01 12:27:05;;;;;;;2.20;1.73;;;11.10;99.90;;;;;;5092284;28;20224;-66
2022/07/01 12:29:54;;;;;;;2.03;1.50;;;11.10;99.90;;;;;;5092292;28;20665;-68
2022/07/01 12:32:27;;;;;;;1.50;1.30;;;11.10;99.90;;;;;;5091372;28;20663;-67
2022/07/01 12:35:03;;;;;;;3.00;1.60;;;11.10;99.90;;;;;;5092155;28;20179;-67
2022/07/01 12:37:36;;;;;;;2.03;1.70;;;11.10;99.90;;;;;;5092038;28;20175;-69
2022/07/01 12:40:22;;;;;;;1.53;1.40;;;11.00;99.90;;;;;;5092504;28;20648;-67
2022/07/01 12:42:50;;;;;;;1.90;1.37;;;11.00;99.90;;;;;;5092172;28;20252;-67
2022/07/01 12:45:24;;;;;;;4.17;1.47;;;11.00;99.90;;;;;;5074324;28;20636;-67
2022/07/01 12:47:55;;;;;;;2.10;1.90;;;10.90;99.90;;;;;;5092041;28;20180;-67
2022/07/01 12:50:33;;;;;;;1.33;1.20;;;11.00;99.90;;;;;;5092168;28;20219;-66
2022/07/01 12:53:11;;;;;;;2.13;1.27;;;10.90;99.90;;;;;;5092195;28;20174;-66
2022/07/01 12:55:39;;;;;;;1.50;1.30;;;10.90;99.90;;;;;;5092141;28;20171;-67
2022/07/01 12:58:09;;;;;;;1.67;1.50;;;10.80;99.90;;;;;;5091904;28;20258;-67
2022/07/01 13:00:39;;;;;;;2.10;1.50;;;10.90;99.90;;;;;;5092013;28;20163;-67
2022/07/01 13:03:08;;;;;;;1.53;1.43;;;10.90;99.90;;;;;;5092046;28;20536;-67
2022/07/01 13:05:38;;;;;;;1.30;1.20;;;10.90;99.90;;;;;;5092077;28;20215;-67
2022/07/01 13:08:07;;;;;;;3.00;1.70;;;10.90;99.90;;;;;;5091814;28;20191;-67
2022/07/01 13:10:35;;;;;;;2.50;2.30;;;10.90;99.90;;;;;;5091819;28;20574;-67
2022/07/01 13:13:04;;;;;;;2.73;1.93;;;10.90;99.90;;;;;;5091900;28;20636;-66
2022/07/01 13:15:32;;;;;;;2.10;1.43;;;11.00;99.90;;;;;;5091847;28;20180;-66
2022/07/01 13:18:00;;;;;;;2.27;1.93;;;11.00;99.90;;;;;;5091830;28;20168;-66
2022/07/01 13:20:29;;;;;;;2.17;1.60;;;11.00;99.90;;;;;;5087851;28;20180;-66